Time;durP1;ratioP1;P1;durP2;ratioP2;P2;SDS_P1;SDS_P2;PMS_P1;PMS_P2;Temp;Humidity;BMP_temperature;BMP_pressure;BME280_temperature;BME280_humidity;BME280_pressure;Samples;Min_cycle;Max_cycle;Signal;HPM_P1;HPM_P2
2021/10/16 00:00:16;;;;;;;3.53;3.23;;;6.70;99.90;;;;;;5035502;28;20470;-71
2021/10/16 00:02:43;;;;;;;5.53;3.13;;;6.80;99.90;;;;;;5038450;28;20491;-69
2021/10/16 00:05:10;;;;;;;4.17;3.63;;;6.80;99.90;;;;;;5044362;28;20491;-71
2021/10/16 00:07:37;;;;;;;5.03;2.90;;;6.70;99.90;;;;;;5041938;28;20559;-70
2021/10/16 00:10:05;;;;;;;4.90;4.37;;;6.70;99.90;;;;;;5037021;28;20999;-73
2021/10/16 00:12:32;;;;;;;3.60;2.30;;;6.70;99.90;;;;;;5020049;28;20548;-70
2021/10/16 00:15:01;;;;;;;6.93;3.47;;;6.70;99.90;;;;;;5039845;28;20474;-71
2021/10/16 00:17:28;;;;;;;4.17;3.50;;;6.70;99.90;;;;;;5038143;28;21054;-72
2021/10/16 00:19:54;;;;;;;3.77;2.80;;;6.70;99.90;;;;;;5043061;28;20501;-69
2021/10/16 00:22:21;;;;;;;5.97;2.80;;;6.60;99.90;;;;;;5049999;28;20514;-72
2021/10/16 00:24:49;;;;;;;7.03;3.50;;;6.60;99.90;;;;;;5043321;28;20438;-73
2021/10/16 00:27:16;;;;;;;6.47;3.23;;;6.60;99.90;;;;;;5036559;28;20462;-68
2021/10/16 00:29:43;;;;;;;2.83;2.53;;;6.60;99.90;;;;;;5033718;28;20505;-68
2021/10/16 00:32:12;;;;;;;5.53;2.57;;;6.60;99.90;;;;;;5036296;28;20573;-70
2021/10/16 00:34:39;;;;;;;3.63;2.50;;;6.50;99.90;;;;;;5035108;28;20447;-73
2021/10/16 00:37:06;;;;;;;3.10;2.17;;;6.60;99.90;;;;;;5033023;28;20555;-71
2021/10/16 00:39:32;;;;;;;9.10;2.93;;;6.50;99.90;;;;;;5033673;28;20853;-71
2021/10/16 00:41:59;;;;;;;3.20;2.90;;;6.50;99.90;;;;;;5037861;28;20442;-69
2021/10/16 00:44:27;;;;;;;6.27;3.57;;;6.50;99.90;;;;;;5031541;28;20458;-71
2021/10/16 00:46:56;;;;;;;4.10;2.27;;;6.40;99.90;;;;;;5035701;28;20530;-69
2021/10/16 00:49:25;;;;;;;2.73;2.23;;;6.30;99.90;;;;;;5032751;28;20459;-71
2021/10/16 00:51:52;;;;;;;6.37;2.70;;;6.30;99.90;;;;;;5035528;28;20455;-68
2021/10/16 00:54:21;;;;;;;7.70;2.93;;;6.20;99.90;;;;;;5038679;28;20511;-70
2021/10/16 00:56:50;;;;;;;5.50;2.53;;;6.10;99.90;;;;;;5038467;28;21034;-71
2021/10/16 00:59:18;;;;;;;5.77;3.80;;;6.20;99.90;;;;;;5041669;28;20916;-76
2021/10/16 01:01:45;;;;;;;5.97;2.33;;;6.20;99.90;;;;;;5033359;28;20519;-73
2021/10/16 01:04:13;;;;;;;8.60;2.83;;;6.20;99.90;;;;;;5038432;28;20473;-71
2021/10/16 01:06:41;;;;;;;7.03;2.60;;;6.20;99.90;;;;;;5033246;28;21016;-70
2021/10/16 01:09:09;;;;;;;14.77;4.07;;;6.20;99.90;;;;;;5036425;28;20462;-75
2021/10/16 01:11:37;;;;;;;10.60;3.70;;;6.30;99.90;;;;;;5036185;28;20468;-70
2021/10/16 01:14:06;;;;;;;4.30;2.93;;;6.30;99.90;;;;;;5032241;28;20550;-69
2021/10/16 01:16:34;;;;;;;4.70;2.30;;;6.30;99.90;;;;;;5039662;28;20512;-70
2021/10/16 01:19:02;;;;;;;6.50;2.60;;;6.20;99.90;;;;;;5042826;28;20438;-69
2021/10/16 01:21:31;;;;;;;7.63;3.50;;;6.20;99.90;;;;;;5041517;28;20517;-69
2021/10/16 01:23:59;;;;;;;6.40;3.10;;;6.20;99.90;;;;;;5031982;28;20485;-70
2021/10/16 01:26:29;;;;;;;4.17;3.17;;;6.20;99.90;;;;;;5042795;28;20492;-68
2021/10/16 01:28:57;;;;;;;3.63;2.67;;;6.30;99.90;;;;;;5040994;28;20436;-71
2021/10/16 01:31:26;;;;;;;10.80;3.80;;;6.30;99.90;;;;;;5033562;28;21108;-72
2021/10/16 01:33:53;;;;;;;3.70;2.80;;;6.30;99.90;;;;;;5033274;28;20644;-69
2021/10/16 01:36:20;;;;;;;3.00;2.63;;;6.30;99.90;;;;;;5033346;28;20968;-68
2021/10/16 01:38:48;;;;;;;4.27;2.60;;;6.30;99.90;;;;;;5038657;28;20544;-76
2021/10/16 01:41:16;;;;;;;4.07;1.93;;;6.30;99.90;;;;;;5040408;28;20487;-69
2021/10/16 01:43:42;;;;;;;8.90;3.30;;;6.30;99.90;;;;;;5036505;28;20457;-72
2021/10/16 01:46:09;;;;;;;2.97;2.60;;;6.20;99.90;;;;;;5034126;28;20481;-73
2021/10/16 01:48:36;;;;;;;8.20;4.37;;;6.10;99.90;;;;;;5039060;28;20464;-72
2021/10/16 01:51:03;;;;;;;4.10;1.67;;;6.10;99.90;;;;;;5041558;28;20526;-75
2021/10/16 01:53:30;;;;;;;4.77;3.03;;;6.10;99.90;;;;;;5039615;28;20545;-68
2021/10/16 01:55:59;;;;;;;5.67;2.50;;;6.00;99.90;;;;;;5035138;28;20486;-73
2021/10/16 01:58:25;;;;;;;7.53;3.40;;;6.00;99.90;;;;;;5038173;28;20471;-69
2021/10/16 02:00:52;;;;;;;10.67;3.13;;;6.00;99.90;;;;;;5037551;28;20546;-70
2021/10/16 02:03:19;;;;;;;3.17;2.17;;;6.10;99.90;;;;;;5035768;28;20430;-76
2021/10/16 02:05:47;;;;;;;3.20;2.00;;;6.10;99.90;;;;;;5045038;28;20553;-70
2021/10/16 02:08:14;;;;;;;2.57;2.37;;;6.20;99.90;;;;;;5039505;28;20936;-68
2021/10/16 02:10:42;;;;;;;8.73;2.10;;;6.20;99.90;;;;;;5039777;28;20431;-70
2021/10/16 02:13:10;;;;;;;3.20;1.90;;;6.30;99.90;;;;;;5039041;28;20549;-68
2021/10/16 02:15:38;;;;;;;5.83;2.43;;;6.40;99.90;;;;;;5032770;28;20467;-70
2021/10/16 02:18:05;;;;;;;4.20;3.20;;;6.40;99.90;;;;;;5037403;28;20572;-68
2021/10/16 02:20:32;;;;;;;2.77;1.87;;;6.30;99.90;;;;;;5043812;28;21397;-68
2021/10/16 02:22:59;;;;;;;3.70;3.20;;;6.20;99.90;;;;;;5041230;28;20747;-70
2021/10/16 02:25:26;;;;;;;5.23;2.83;;;6.20;99.90;;;;;;5036533;28;20886;-69
2021/10/16 02:27:53;;;;;;;4.40;2.20;;;6.10;99.90;;;;;;5038274;28;20491;-68
2021/10/16 02:30:21;;;;;;;2.10;1.90;;;6.00;99.90;;;;;;5046332;28;20537;-68
2021/10/16 02:32:48;;;;;;;3.53;2.13;;;6.10;99.90;;;;;;5038829;28;20865;-71
2021/10/16 02:35:15;;;;;;;8.60;1.90;;;6.10;99.90;;;;;;5033388;28;20491;-67
2021/10/16 02:37:42;;;;;;;5.47;3.90;;;6.20;99.90;;;;;;5035494;28;20475;-69
2021/10/16 02:40:10;;;;;;;2.83;2.20;;;6.10;99.90;;;;;;5033638;28;20434;-68
2021/10/16 02:42:39;;;;;;;2.63;2.13;;;6.20;99.90;;;;;;5032009;28;20523;-68
2021/10/16 02:45:06;;;;;;;2.53;2.33;;;6.10;99.90;;;;;;5038069;28;20506;-70
2021/10/16 02:47:35;;;;;;;8.83;3.20;;;6.10;99.90;;;;;;5031250;28;20476;-72
2021/10/16 02:50:02;;;;;;;3.33;2.47;;;6.10;99.90;;;;;;5042064;28;21310;-71
2021/10/16 02:52:29;;;;;;;2.90;2.20;;;6.00;99.90;;;;;;5036627;28;20537;-70
2021/10/16 02:54:56;;;;;;;3.77;2.27;;;6.10;99.90;;;;;;5036192;28;20482;-68
2021/10/16 02:57:23;;;;;;;2.50;2.20;;;6.10;99.90;;;;;;5035543;28;20486;-72
2021/10/16 02:59:50;;;;;;;2.87;2.57;;;6.00;99.90;;;;;;5033182;28;21155;-75
2021/10/16 03:02:17;;;;;;;2.80;2.03;;;6.00;99.90;;;;;;5033970;28;20556;-69
2021/10/16 03:04:45;;;;;;;4.30;2.97;;;6.00;99.90;;;;;;5034953;28;21021;-74
2021/10/16 03:07:12;;;;;;;6.43;3.50;;;6.00;99.90;;;;;;5042106;28;21071;-69
2021/10/16 03:09:39;;;;;;;4.10;2.27;;;6.10;99.90;;;;;;5039969;28;20464;-69
2021/10/16 03:12:06;;;;;;;4.07;2.43;;;6.10;99.90;;;;;;5042879;28;20525;-68
2021/10/16 03:14:33;;;;;;;13.27;4.40;;;6.00;99.90;;;;;;5031869;28;20476;-69
2021/10/16 03:17:00;;;;;;;13.57;3.37;;;6.00;99.90;;;;;;5032841;28;21854;-68
2021/10/16 03:19:27;;;;;;;4.80;2.90;;;6.10;99.90;;;;;;5031057;28;20537;-72
2021/10/16 03:21:56;;;;;;;7.93;2.67;;;6.10;99.90;;;;;;5038494;28;20492;-68
2021/10/16 03:24:23;;;;;;;1.97;1.87;;;6.10;99.90;;;;;;5044928;28;20591;-72
2021/10/16 03:26:50;;;;;;;2.77;2.57;;;6.20;99.90;;;;;;5041662;28;20540;-69
2021/10/16 03:29:17;;;;;;;5.07;3.17;;;6.20;99.90;;;;;;5034762;28;21780;-68
2021/10/16 03:31:44;;;;;;;4.80;2.20;;;6.30;99.90;;;;;;5034656;28;20463;-67
2021/10/16 03:34:12;;;;;;;5.43;3.60;;;6.40;99.90;;;;;;5039258;28;20925;-68
2021/10/16 03:36:39;;;;;;;2.87;2.57;;;6.30;99.90;;;;;;5034652;28;20465;-69
2021/10/16 03:39:07;;;;;;;3.17;1.93;;;6.20;99.90;;;;;;5037300;28;20486;-69
2021/10/16 03:41:34;;;;;;;5.57;3.33;;;6.30;99.90;;;;;;5029319;28;20513;-69
2021/10/16 03:44:01;;;;;;;9.23;2.20;;;6.40;99.90;;;;;;5033923;28;21552;-69
2021/10/16 03:46:28;;;;;;;2.83;2.40;;;6.50;99.90;;;;;;5035118;28;20558;-69
2021/10/16 03:48:55;;;;;;;8.10;4.40;;;6.40;99.90;;;;;;5035115;28;20486;-65
2021/10/16 03:51:22;;;;;;;4.27;2.13;;;6.40;99.90;;;;;;5034872;28;20521;-67
2021/10/16 03:53:49;;;;;;;6.67;2.50;;;6.50;99.90;;;;;;5033930;28;20590;-68
2021/10/16 03:56:17;;;;;;;7.73;2.73;;;6.50;99.90;;;;;;5037230;28;20491;-69
2021/10/16 03:58:44;;;;;;;3.40;2.70;;;6.50;99.90;;;;;;5039282;28;20589;-68
2021/10/16 04:01:11;;;;;;;3.60;2.80;;;6.50;99.90;;;;;;5037291;28;20542;-68
2021/10/16 04:03:38;;;;;;;4.03;2.53;;;6.50;99.90;;;;;;5033485;28;21007;-67
2021/10/16 04:06:05;;;;;;;4.43;2.33;;;6.60;99.90;;;;;;5044284;28;20889;-68
2021/10/16 04:08:33;;;;;;;5.30;2.63;;;6.50;99.90;;;;;;5042140;28;20430;-69
2021/10/16 04:11:00;;;;;;;3.43;2.93;;;6.50;99.90;;;;;;5033176;28;20579;-67
2021/10/16 04:13:28;;;;;;;4.20;2.73;;;6.60;99.90;;;;;;5042449;28;20568;-69
2021/10/16 04:15:55;;;;;;;4.17;3.30;;;6.60;99.90;;;;;;5039055;28;20903;-69
2021/10/16 04:18:22;;;;;;;3.53;3.00;;;6.50;99.90;;;;;;5033004;28;20500;-69
2021/10/16 04:20:49;;;;;;;5.27;2.63;;;6.50;99.90;;;;;;5049524;28;20512;-66
2021/10/16 04:23:16;;;;;;;3.53;2.53;;;6.50;99.90;;;;;;5044117;28;20484;-69
2021/10/16 04:25:43;;;;;;;3.83;2.40;;;6.60;99.90;;;;;;5038857;28;20511;-68
2021/10/16 04:28:10;;;;;;;4.33;3.03;;;6.50;99.90;;;;;;5040787;28;20558;-69
2021/10/16 04:30:38;;;;;;;8.53;3.43;;;6.50;99.90;;;;;;5036582;28;20459;-69
2021/10/16 04:33:06;;;;;;;7.30;2.53;;;6.50;99.90;;;;;;5036968;28;20447;-69
2021/10/16 04:35:33;;;;;;;2.90;2.00;;;6.40;99.90;;;;;;5044972;28;20584;-70
2021/10/16 04:38:00;;;;;;;6.47;3.77;;;6.40;99.90;;;;;;5033848;28;20430;-68
2021/10/16 04:40:27;;;;;;;3.17;2.17;;;6.40;99.90;;;;;;5037722;28;20468;-65
2021/10/16 04:42:54;;;;;;;3.53;2.27;;;6.30;99.90;;;;;;5026296;28;20483;-67
2021/10/16 04:45:22;;;;;;;4.27;2.87;;;6.10;99.90;;;;;;5030380;28;20947;-65
2021/10/16 04:47:51;;;;;;;5.00;2.13;;;6.10;99.90;;;;;;5028949;28;20456;-68
2021/10/16 04:50:18;;;;;;;2.97;2.23;;;6.20;99.90;;;;;;5033141;28;20811;-69
2021/10/16 04:52:45;;;;;;;8.13;2.63;;;6.20;99.90;;;;;;5040231;28;21104;-67
2021/10/16 04:55:12;;;;;;;3.57;2.10;;;6.10;99.90;;;;;;5041511;28;20549;-69
2021/10/16 04:57:39;;;;;;;6.00;3.50;;;6.00;99.90;;;;;;5039002;28;20550;-69
2021/10/16 05:00:07;;;;;;;5.07;3.77;;;6.10;99.90;;;;;;5038737;28;20542;-68
2021/10/16 05:02:34;;;;;;;6.07;3.17;;;6.00;99.90;;;;;;5030423;28;20957;-68
2021/10/16 05:05:03;;;;;;;3.23;2.87;;;6.00;99.90;;;;;;5029234;28;20448;-69
2021/10/16 05:07:30;;;;;;;4.23;2.97;;;6.10;99.90;;;;;;5030225;28;20541;-68
2021/10/16 05:09:57;;;;;;;4.83;2.70;;;6.10;99.90;;;;;;5036236;28;20466;-66
2021/10/16 05:12:24;;;;;;;3.87;2.20;;;6.10;99.90;;;;;;5030900;28;20556;-69
2021/10/16 05:14:51;;;;;;;3.80;2.30;;;6.10;99.90;;;;;;5030812;28;20544;-67
2021/10/16 05:17:18;;;;;;;5.00;2.90;;;6.10;99.90;;;;;;5025798;28;20483;-68
2021/10/16 05:19:45;;;;;;;3.90;2.23;;;6.10;99.90;;;;;;5039671;28;20462;-66
2021/10/16 05:22:14;;;;;;;5.73;3.73;;;6.10;99.90;;;;;;5038525;28;20452;-69
2021/10/16 05:24:41;;;;;;;5.93;2.90;;;6.10;99.90;;;;;;5049999;28;20746;-67
2021/10/16 05:27:08;;;;;;;8.33;2.90;;;6.10;99.90;;;;;;5044187;28;20471;-68
2021/10/16 05:29:35;;;;;;;3.50;2.43;;;6.10;99.90;;;;;;5046602;28;20545;-68
2021/10/16 05:32:01;;;;;;;8.30;4.23;;;6.20;99.90;;;;;;5042321;28;20533;-69
2021/10/16 05:34:28;;;;;;;4.23;2.87;;;6.30;99.90;;;;;;5047890;28;20519;-68
2021/10/16 05:36:55;;;;;;;4.20;2.63;;;6.30;99.90;;;;;;5043341;28;20561;-66
2021/10/16 05:39:24;;;;;;;3.23;2.80;;;6.30;99.90;;;;;;5036757;28;20555;-68
2021/10/16 05:41:51;;;;;;;4.27;3.10;;;6.40;99.90;;;;;;5040701;28;20630;-68
2021/10/16 05:44:18;;;;;;;4.37;3.00;;;6.50;99.90;;;;;;5037544;28;20526;-68
2021/10/16 05:46:45;;;;;;;3.40;2.80;;;6.50;99.90;;;;;;5037488;28;20498;-68
2021/10/16 05:49:12;;;;;;;7.63;4.30;;;6.60;99.90;;;;;;5027946;28;20487;-69
2021/10/16 05:51:38;;;;;;;6.77;4.03;;;6.50;99.90;;;;;;5033888;28;20477;-68
2021/10/16 05:54:05;;;;;;;3.23;2.63;;;6.60;99.90;;;;;;5030336;28;20570;-69
2021/10/16 05:56:34;;;;;;;3.40;2.40;;;6.50;99.90;;;;;;5044469;28;20553;-69
2021/10/16 05:59:00;;;;;;;11.53;2.43;;;6.50;99.90;;;;;;5036924;28;20447;-69
2021/10/16 06:01:27;;;;;;;3.97;3.00;;;6.40;99.90;;;;;;5038731;28;20480;-69
2021/10/16 06:03:55;;;;;;;22.83;3.07;;;6.50;99.90;;;;;;5037380;28;20551;-69
2021/10/16 06:06:22;;;;;;;4.40;2.63;;;6.50;99.90;;;;;;5025770;28;20564;-69
2021/10/16 06:08:48;;;;;;;4.30;3.40;;;6.60;99.90;;;;;;5036540;28;20454;-69
2021/10/16 06:11:15;;;;;;;7.30;3.90;;;6.60;99.90;;;;;;5030741;28;20434;-68
2021/10/16 06:13:44;;;;;;;6.50;3.00;;;6.70;99.90;;;;;;5040041;28;20425;-68
2021/10/16 06:16:11;;;;;;;6.83;3.23;;;6.90;99.90;;;;;;5038450;28;20454;-69
2021/10/16 06:18:40;;;;;;;4.27;3.20;;;6.90;99.90;;;;;;5041702;28;20509;-69
2021/10/16 06:21:10;;;;;;;4.37;3.83;;;6.80;99.90;;;;;;5039355;28;20540;-67
2021/10/16 06:23:37;;;;;;;6.30;3.97;;;6.80;99.90;;;;;;5037448;28;20512;-67
2021/10/16 06:26:05;;;;;;;5.30;3.27;;;7.00;99.90;;;;;;5041982;28;20981;-69
2021/10/16 06:28:32;;;;;;;8.27;3.30;;;7.10;99.90;;;;;;5039436;28;20444;-68
2021/10/16 06:31:01;;;;;;;9.27;4.27;;;7.10;99.90;;;;;;5039971;28;20463;-69
2021/10/16 06:33:28;;;;;;;8.30;4.87;;;7.20;99.90;;;;;;5036772;28;20496;-70
2021/10/16 06:35:55;;;;;;;16.33;6.33;;;7.30;99.90;;;;;;5038776;28;20495;-68
2021/10/16 06:38:22;;;;;;;12.43;7.80;;;7.40;99.90;;;;;;5040036;28;21023;-68
2021/10/16 06:40:49;;;;;;;12.23;5.67;;;7.50;99.90;;;;;;5055245;28;20443;-69
2021/10/16 06:43:16;;;;;;;38.33;6.80;;;7.50;99.90;;;;;;5044303;28;20542;-69
2021/10/16 06:45:42;;;;;;;10.07;5.77;;;7.60;99.90;;;;;;5024783;28;20497;-67
2021/10/16 06:48:11;;;;;;;9.07;5.43;;;7.60;99.90;;;;;;5034920;28;20454;-69
2021/10/16 06:50:38;;;;;;;6.43;5.50;;;7.70;99.90;;;;;;5040591;28;20491;-68
2021/10/16 06:53:05;;;;;;;10.90;6.20;;;7.50;99.90;;;;;;5040477;28;20545;-68
2021/10/16 06:55:32;;;;;;;9.17;4.77;;;7.60;99.90;;;;;;5038107;28;20566;-68
2021/10/16 06:57:58;;;;;;;4.47;4.03;;;7.70;99.90;;;;;;5041750;28;20821;-68
2021/10/16 07:00:25;;;;;;;7.80;4.93;;;7.80;99.90;;;;;;5031992;28;20454;-69
2021/10/16 07:02:52;;;;;;;5.60;3.83;;;7.90;99.90;;;;;;5034991;28;20460;-68
2021/10/16 07:05:21;;;;;;;7.60;6.03;;;7.90;99.90;;;;;;5026055;28;20466;-68
2021/10/16 07:07:48;;;;;;;9.67;4.00;;;8.00;99.90;;;;;;5026481;28;20904;-67
2021/10/16 07:10:15;;;;;;;9.33;5.30;;;8.10;99.90;;;;;;5029624;28;20443;-69
2021/10/16 07:12:42;;;;;;;5.97;4.30;;;8.30;99.90;;;;;;5028176;28;20442;-67
2021/10/16 07:15:09;;;;;;;16.30;4.80;;;8.30;99.90;;;;;;5015490;28;20595;-68
2021/10/16 07:17:36;;;;;;;7.60;5.20;;;8.40;99.90;;;;;;5027027;28;20484;-68
2021/10/16 07:20:05;;;;;;;7.37;4.00;;;8.40;99.90;;;;;;5019810;28;20487;-69
2021/10/16 07:22:33;;;;;;;6.90;4.40;;;8.40;99.90;;;;;;5029449;28;20546;-67
2021/10/16 07:25:00;;;;;;;3.70;3.33;;;8.40;99.90;;;;;;5026767;28;20517;-70
2021/10/16 07:27:27;;;;;;;5.23;4.10;;;8.50;99.90;;;;;;5030336;28;20962;-66
2021/10/16 07:29:54;;;;;;;7.77;4.10;;;8.70;99.90;;;;;;5017144;28;20468;-69
2021/10/16 07:32:21;;;;;;;9.00;5.43;;;8.70;99.90;;;;;;5022460;28;20441;-68
2021/10/16 07:34:48;;;;;;;10.70;4.90;;;8.90;99.90;;;;;;5024439;28;20933;-69
2021/10/16 07:37:15;;;;;;;10.17;4.47;;;8.80;99.90;;;;;;5024327;28;20568;-69
2021/10/16 07:39:44;;;;;;;6.37;4.07;;;9.10;99.90;;;;;;5051058;28;20417;-69
2021/10/16 07:42:11;;;;;;;8.77;4.70;;;8.90;99.90;;;;;;5046712;28;20459;-68
2021/10/16 07:44:38;;;;;;;5.13;3.73;;;9.10;99.90;;;;;;5051858;28;20443;-67
2021/10/16 07:47:05;;;;;;;4.27;3.07;;;9.30;99.90;;;;;;5050101;28;21003;-70
2021/10/16 07:49:32;;;;;;;8.53;4.10;;;9.30;99.90;;;;;;5049738;28;20582;-70
2021/10/16 07:51:59;;;;;;;4.70;2.73;;;9.20;99.90;;;;;;5055467;28;20460;-70
2021/10/16 07:54:26;;;;;;;7.60;3.50;;;9.30;99.90;;;;;;5053256;28;20877;-70
2021/10/16 07:56:55;;;;;;;10.20;4.53;;;9.20;99.90;;;;;;5044420;28;20488;-70
2021/10/16 07:59:22;;;;;;;5.40;3.80;;;9.20;99.90;;;;;;5051701;28;20450;-71
2021/10/16 08:01:48;;;;;;;8.03;4.83;;;9.50;99.90;;;;;;5052468;28;20410;-70
2021/10/16 08:04:15;;;;;;;5.97;3.83;;;9.90;99.90;;;;;;5049109;28;20482;-70
2021/10/16 08:06:42;;;;;;;10.70;4.43;;;10.10;99.90;;;;;;5051361;28;20503;-70
2021/10/16 08:09:09;;;;;;;8.17;3.70;;;10.20;99.90;;;;;;5048099;28;20582;-69
2021/10/16 08:11:36;;;;;;;11.20;4.77;;;10.50;99.90;;;;;;5052270;28;20517;-67
2021/10/16 08:14:05;;;;;;;12.50;6.37;;;10.60;99.90;;;;;;5049398;28;21003;-68
2021/10/16 08:16:32;;;;;;;11.93;5.57;;;10.70;99.90;;;;;;5047581;28;20517;-68
2021/10/16 08:18:59;;;;;;;8.00;4.37;;;10.70;99.90;;;;;;5041771;28;20600;-68
2021/10/16 08:21:26;;;;;;;6.17;5.00;;;10.60;99.90;;;;;;5061343;28;20421;-69
2021/10/16 08:23:53;;;;;;;6.20;5.20;;;10.60;99.90;;;;;;5056493;28;20458;-67
2021/10/16 08:26:20;;;;;;;5.93;4.00;;;10.50;99.90;;;;;;5057824;28;20509;-69
2021/10/16 08:28:48;;;;;;;9.40;5.23;;;10.40;99.90;;;;;;5055743;28;20546;-68
2021/10/16 08:31:17;;;;;;;16.00;6.37;;;10.70;99.90;;;;;;5040817;28;20965;-68
2021/10/16 08:33:44;;;;;;;7.57;5.20;;;10.90;99.90;;;;;;5050811;28;20426;-69
2021/10/16 08:36:12;;;;;;;11.90;4.90;;;11.10;99.90;;;;;;5043697;28;20587;-68
2021/10/16 08:38:39;;;;;;;22.33;5.43;;;11.20;99.90;;;;;;5048891;28;20854;-68
2021/10/16 08:41:10;;;;;;;5.47;3.93;;;11.30;99.90;;;;;;5046169;28;20599;-69
2021/10/16 08:43:37;;;;;;;11.90;4.50;;;11.50;99.90;;;;;;5043603;28;20464;-68
2021/10/16 08:46:04;;;;;;;15.23;6.00;;;11.70;99.90;;;;;;5044247;28;20526;-70
2021/10/16 08:48:33;;;;;;;10.30;4.90;;;11.50;99.90;;;;;;5041592;28;20530;-69
2021/10/16 08:51:02;;;;;;;13.63;6.13;;;11.70;99.90;;;;;;5047236;28;20974;-68
2021/10/16 08:53:29;;;;;;;10.73;5.80;;;12.10;99.90;;;;;;5049565;28;20447;-69
2021/10/16 08:55:56;;;;;;;15.30;6.53;;;12.30;99.90;;;;;;5044236;28;20487;-68
2021/10/16 08:58:23;;;;;;;7.73;6.23;;;12.20;99.90;;;;;;5050598;28;20444;-69
2021/10/16 09:00:52;;;;;;;16.87;4.97;;;12.50;99.90;;;;;;5045486;28;20535;-67
2021/10/16 09:03:28;;;;;;;10.30;6.17;;;12.60;99.90;;;;;;5049023;28;20462;-69
2021/10/16 09:06:14;;;;;;;10.63;6.40;;;12.80;99.90;;;;;;5045091;28;20836;-69
2021/10/16 09:08:45;;;;;;;12.77;5.93;;;12.90;99.90;;;;;;5050593;28;20914;-69
2021/10/16 09:11:24;;;;;;;8.10;5.00;;;13.00;99.90;;;;;;5046043;28;21026;-69
2021/10/16 09:13:54;;;;;;;16.73;5.10;;;13.10;99.90;;;;;;5047817;28;20468;-69
2021/10/16 09:16:40;;;;;;;5.03;4.43;;;13.30;99.90;;;;;;5043842;28;20495;-69
2021/10/16 09:19:18;;;;;;;7.23;4.87;;;13.50;99.90;;;;;;5044651;28;20484;-69
2021/10/16 09:21:50;;;;;;;11.27;6.30;;;13.80;99.90;;;;;;5038095;28;21033;-69
2021/10/16 09:24:19;;;;;;;10.77;6.13;;;13.80;99.90;;;;;;5041905;28;20534;-69
2021/10/16 09:26:49;;;;;;;12.77;6.13;;;13.60;99.90;;;;;;5048384;28;20490;-68
2021/10/16 09:29:17;;;;;;;7.23;4.70;;;13.80;99.90;;;;;;5049925;28;20847;-69
2021/10/16 09:31:46;;;;;;;12.00;4.70;;;14.00;99.90;;;;;;5044309;28;20459;-69
2021/10/16 09:34:14;;;;;;;8.20;5.10;;;13.80;99.90;;;;;;5045694;28;20459;-69
2021/10/16 09:36:43;;;;;;;10.77;5.87;;;14.20;99.90;;;;;;5039642;28;20496;-69
2021/10/16 09:39:17;;;;;;;15.83;5.73;;;14.30;99.90;;;;;;5045530;28;20546;-69
2021/10/16 09:41:44;;;;;;;9.00;5.30;;;14.50;99.90;;;;;;5041313;28;20448;-69
2021/10/16 09:44:26;;;;;;;6.93;4.17;;;14.70;99.90;;;;;;5032709;28;20531;-69
2021/10/16 09:47:08;;;;;;;12.13;4.90;;;14.90;99.90;;;;;;5040187;28;20537;-69
2021/10/16 09:49:37;;;;;;;10.17;5.13;;;14.60;99.90;;;;;;5043517;28;21005;-69
2021/10/16 09:52:06;;;;;;;6.90;4.00;;;14.40;99.90;;;;;;5048363;28;20487;-68
2021/10/16 09:54:35;;;;;;;11.40;4.40;;;14.40;99.90;;;;;;5041291;28;20872;-69
2021/10/16 09:57:06;;;;;;;9.67;4.20;;;14.50;99.90;;;;;;5043281;28;20487;-67
2021/10/16 09:59:34;;;;;;;9.37;5.10;;;14.30;99.90;;;;;;5048149;28;20551;-69
2021/10/16 10:02:03;;;;;;;9.77;4.57;;;14.60;99.90;;;;;;5042270;28;20476;-70
2021/10/16 10:04:34;;;;;;;7.60;3.70;;;14.70;99.90;;;;;;5048530;28;20535;-68
2021/10/16 10:07:03;;;;;;;12.03;4.33;;;14.80;99.90;;;;;;5039113;28;20475;-68
2021/10/16 10:09:30;;;;;;;6.43;4.10;;;15.10;99.90;;;;;;5049734;28;20451;-71
2021/10/16 10:11:59;;;;;;;11.07;4.10;;;15.30;99.90;;;;;;5043302;28;20463;-68
2021/10/16 10:14:27;;;;;;;6.97;3.53;;;15.40;99.90;;;;;;5039159;28;20452;-69
2021/10/16 10:16:58;;;;;;;9.50;4.27;;;15.30;99.90;;;;;;5041695;28;20483;-69
2021/10/16 10:19:26;;;;;;;12.27;4.20;;;15.20;99.90;;;;;;5040259;28;20836;-69
2021/10/16 10:21:53;;;;;;;5.93;3.20;;;15.40;99.90;;;;;;5040482;28;20452;-69
2021/10/16 10:24:20;;;;;;;13.20;3.87;;;15.70;99.90;;;;;;5043339;28;20544;-69
2021/10/16 10:26:48;;;;;;;5.90;3.20;;;15.70;99.90;;;;;;5039470;28;20491;-69
2021/10/16 10:29:17;;;;;;;5.20;3.70;;;16.00;99.90;;;;;;5039991;28;20525;-70
2021/10/16 10:32:05;;;;;;;22.47;5.90;;;16.40;99.90;;;;;;5051389;28;20456;-68
2021/10/16 10:34:35;;;;;;;8.50;3.30;;;17.70;99.90;;;;;;5053412;28;20454;-68
2021/10/16 10:37:06;;;;;;;6.70;3.50;;;18.30;99.90;;;;;;5050418;28;21004;-69
2021/10/16 10:39:54;;;;;;;5.27;3.30;;;18.40;99.90;;;;;;5043602;28;20980;-69
2021/10/16 10:42:49;;;;;;;5.53;2.87;;;17.80;99.90;;;;;;5036608;28;22660;-68
2021/10/16 10:45:41;;;;;;;9.17;2.03;;;17.50;99.90;;;;;;5046235;28;20456;-68
2021/10/16 10:48:14;;;;;;;2.97;1.93;;;17.20;99.90;;;;;;5053804;28;20518;-69
2021/10/16 10:50:50;;;;;;;8.80;3.27;;;16.90;99.90;;;;;;5042182;28;20475;-68
2021/10/16 10:53:39;;;;;;;6.70;2.73;;;16.40;99.90;;;;;;5052312;28;20539;-69
2021/10/16 10:56:09;;;;;;;7.23;3.10;;;16.30;99.90;;;;;;5043990;28;20484;-71
2021/10/16 10:59:02;;;;;;;10.10;3.70;;;16.20;99.90;;;;;;5046875;28;20557;-70
2021/10/16 11:01:54;;;;;;;8.37;4.03;;;15.70;99.90;;;;;;5027288;28;20467;-69
2021/10/16 11:04:35;;;;;;;13.73;3.40;;;15.30;99.90;;;;;;5045046;28;20512;-69
2021/10/16 11:07:04;;;;;;;5.93;3.17;;;15.30;99.90;;;;;;5051058;28;20478;-69
2021/10/16 11:09:32;;;;;;;4.30;2.90;;;15.20;99.90;;;;;;5050225;28;20458;-69
2021/10/16 11:11:59;;;;;;;4.37;2.30;;;15.30;99.90;;;;;;5049503;28;20516;-68
2021/10/16 11:14:34;;;;;;;4.43;2.40;;;15.40;99.90;;;;;;5049568;28;20448;-69
2021/10/16 11:17:05;;;;;;;9.20;3.77;;;15.60;99.90;;;;;;5044195;28;20991;-68
2021/10/16 11:19:50;;;;;;;4.53;2.53;;;15.90;99.90;;;;;;5044566;28;20494;-69
2021/10/16 11:22:17;;;;;;;20.07;2.70;;;16.50;99.90;;;;;;5047227;28;20511;-69
2021/10/16 11:24:44;;;;;;;3.00;1.80;;;17.80;99.90;;;;;;5040839;28;20461;-68
2021/10/16 11:27:11;;;;;;;7.50;2.77;;;19.60;99.90;;;;;;5048691;28;20467;-69
2021/10/16 11:29:40;;;;;;;4.90;2.30;;;20.10;99.90;;;;;;5042843;28;20844;-68
2021/10/16 11:32:18;;;;;;;4.10;2.03;;;19.60;99.90;;;;;;5042983;28;20451;-69
2021/10/16 11:34:56;;;;;;;11.80;2.60;;;18.90;99.90;;;;;;5040025;28;20475;-69
2021/10/16 11:37:37;;;;;;;6.50;3.03;;;19.00;99.90;;;;;;5047905;28;20497;-69
2021/10/16 11:40:07;;;;;;;4.37;1.70;;;20.00;97.90;;;;;;5043050;28;20440;-67
2021/10/16 11:42:34;;;;;;;4.73;2.33;;;19.70;97.00;;;;;;5047038;28;20439;-69
2021/10/16 11:45:01;;;;;;;9.53;2.50;;;19.00;98.60;;;;;;5042199;28;20478;-69
2021/10/16 11:47:30;;;;;;;8.30;3.37;;;18.60;99.90;;;;;;5047627;28;20460;-70
2021/10/16 11:49:57;;;;;;;6.53;2.60;;;18.40;99.90;;;;;;5045977;28;20557;-70
2021/10/16 11:52:25;;;;;;;13.30;2.80;;;18.40;99.90;;;;;;5036953;28;20451;-70
2021/10/16 11:55:10;;;;;;;14.23;3.47;;;18.00;99.70;;;;;;5043663;28;20471;-68
2021/10/16 11:57:37;;;;;;;7.00;2.30;;;17.40;99.90;;;;;;5048955;28;20498;-69
2021/10/16 12:00:32;;;;;;;5.20;2.27;;;16.80;99.90;;;;;;5059653;28;20451;-69
2021/10/16 12:03:10;;;;;;;5.50;1.90;;;16.50;99.90;;;;;;5005282;28;20470;-69
2021/10/16 12:05:38;;;;;;;5.93;1.77;;;16.30;99.90;;;;;;5041805;28;20586;-69
2021/10/16 12:08:16;;;;;;;4.30;2.60;;;16.00;99.90;;;;;;5048423;28;20580;-68
2021/10/16 12:10:51;;;;;;;3.90;1.80;;;15.60;99.90;;;;;;5040187;28;20943;-68
2021/10/16 12:13:37;;;;;;;4.27;1.90;;;15.30;99.90;;;;;;5042133;28;20501;-68
2021/10/16 12:16:12;;;;;;;2.90;1.80;;;15.30;99.90;;;;;;5055282;28;20478;-69
2021/10/16 12:18:54;;;;;;;5.00;2.40;;;14.80;99.90;;;;;;5056644;28;20438;-68
2021/10/16 12:21:29;;;;;;;3.40;1.50;;;14.80;99.90;;;;;;5041854;28;20466;-69
2021/10/16 12:23:57;;;;;;;7.97;2.10;;;14.80;99.90;;;;;;5038932;28;20457;-69
2021/10/16 12:26:26;;;;;;;11.27;2.17;;;14.70;99.90;;;;;;5049453;28;20478;-69
2021/10/16 12:28:54;;;;;;;2.80;1.87;;;14.70;99.90;;;;;;5047287;28;20452;-70
2021/10/16 12:31:22;;;;;;;3.50;2.30;;;14.40;99.90;;;;;;5050956;28;20452;-69
2021/10/16 12:34:02;;;;;;;2.23;1.60;;;14.30;99.90;;;;;;5045688;28;20540;-70
2021/10/16 12:36:30;;;;;;;5.10;1.90;;;14.30;99.90;;;;;;5046102;28;20488;-69
2021/10/16 12:38:58;;;;;;;6.93;2.50;;;14.30;99.90;;;;;;5048683;28;20935;-68
2021/10/16 12:41:34;;;;;;;7.53;2.30;;;14.50;99.90;;;;;;5048658;28;20463;-69
2021/10/16 12:44:19;;;;;;;3.70;2.30;;;14.70;99.90;;;;;;5052961;28;20926;-69
2021/10/16 12:46:48;;;;;;;8.67;2.83;;;14.90;99.90;;;;;;5051791;28;20483;-70
2021/10/16 12:49:31;;;;;;;5.20;2.10;;;15.00;99.90;;;;;;5044719;28;20482;-69
2021/10/16 12:52:00;;;;;;;4.43;2.53;;;15.10;99.90;;;;;;5048954;28;20443;-69
2021/10/16 12:54:32;;;;;;;5.60;2.03;;;15.10;99.90;;;;;;5049375;28;20456;-69
2021/10/16 12:57:04;;;;;;;9.33;2.27;;;15.10;99.90;;;;;;5042941;28;20495;-69
2021/10/16 12:59:31;;;;;;;6.37;2.20;;;15.20;99.90;;;;;;5048603;28;20448;-68